Nearby METAR Reports

 

KSJC - San Jose, California, USA
Distance from station: СИ 14km
Актуализирано: 14/11/2018 08:53
Haze, Преобладаваща облачност
Haze, Преобладаваща облачност
 Вятър от Ю
Вятър: Ю 6 km/h
Температура: 10°C
Точка на оросяване: 2°C
Влажност: 58%
Барометър: 1028.8 hPa
Метео сводка: Haze
Clouds: Преобладаваща облачност
Visibility: 8 km
Cloud details: Few Clouds 30 m
Частична облачност 701 m
Преобладаваща облачност 6096 m
2018/11/14 06:53 KSJC 140653Z 17003KT 5SM HZ FEW001 SCT023 BKN200 10/02 A3038 RMK AO2 SLP285 FU FEW001 FU SCT023 T01000017
KNUQ - Moffett Nas/Mtn, California, USA
Distance from station: С 14km
Актуализирано: 14/11/2018 08:56
Haze, Тихо и ясно
Haze, Тихо и ясно
 Вятър от ЮЮЗ
Вятър: ЮЮЗ 6 km/h
Температура: 11°C
Точка на оросяване: 3°C
Влажност: 58%
Барометър: 1028.8 hPa
Метео сводка: Haze
Clouds: Тихо и ясно
Visibility: 10 km
2018/11/14 06:56 KNUQ 140656Z AUTO 21003KT 6SM HZ CLR 11/03 A3038 RMK AO2 SLP290 T01060028 $
 
KPAO - Palo Alto, California, USA
Distance from station: ССЗ 23km
Актуализирано: 14/11/2018 06:47
NOT Current
Smoke, Haze, Преобладаваща облачност
Smoke, Haze, Преобладаваща облачност
 Вятър от calm
Вятър: Тихо
Температура: 10°C
Точка на оросяване: 6°C
Влажност: 76%
Барометър: 1028.8 hPa
Метео сводка: Smoke, Haze
Clouds: Преобладаваща облачност
Visibility: 5 km
Cloud details: Преобладаваща облачност 6096 m
2018/11/14 04:47 KPAO 140447Z 00000KT 3SM FU HZ BKN200 10/06 A3038 RMK LAST
KRHV - San Jose/Reid, California, USA
Distance from station: ИСИ 19km
Актуализирано: 14/11/2018 07:50
NOT Current
Smoke, Частична облачност
Smoke, Частична облачност
 Вятър от calm
Вятър: Тихо
Температура: 9°C
Точка на оросяване: 1°C
Влажност: 58%
Барометър: 1028.4 hPa
Метео сводка: Smoke
Clouds: Частична облачност
Visibility: 10 km
Cloud details: Частична облачност 914 m
2018/11/14 05:50 KRHV 140550Z 00000KT 6SM FU SCT030 09/01 A3037 RMK LAST
 
KOAK - Oakland, California, USA
Distance from station: ССЗ 50km
Актуализирано: 14/11/2018 08:53
Haze, Преобладаваща облачност
Haze, Преобладаваща облачност
 Вятър от ЮИ
Вятър: ЮИ 11 km/h
Температура: 11°C
Точка на оросяване: 5°C
Влажност: 67%
Барометър: 1028.4 hPa
Метео сводка: Haze
Clouds: Преобладаваща облачност
Visibility: 6 km
Cloud details: Преобладаваща облачност 457 m
Преобладаваща облачност 5486 m
2018/11/14 06:53 KOAK 140653Z 14006KT 4SM HZ BKN015 BKN180 11/05 A3037 RMK AO2 SLP284 FU BKN015 T01060050
KSQL - San Carlos Airpo, California, USA
Distance from station: СЗ 34km
Актуализирано: 14/11/2018 08:55
Haze, Тихо и ясно
Haze, Тихо и ясно
 Вятър от ЮЗ
Вятър: ЮЗ 6 km/h
Температура: 10°C
Точка на оросяване: 2°C
Влажност: 58%
Барометър: 1028.4 hPa
Метео сводка: Haze
Clouds: Тихо и ясно
Visibility: 10 km
2018/11/14 06:55 KSQL 140655Z AUTO 22003KT 6SM HZ CLR 10/02 A3037 RMK AO2
 
KSFO - San Francisco, California, USA
Distance from station: СЗ 49km
Актуализирано: 14/11/2018 08:56
Haze, Few clouds
Haze, Few clouds
 Вятър от ЮИ
Вятър: ЮИ 9 km/h
Температура: 12°C
Точка на оросяване: 3°C
Влажност: 54%
Барометър: 1028.1 hPa
Метео сводка: Haze
Clouds: Few Clouds
Visibility: 8 km
Cloud details: Few Clouds 6096 m
2018/11/14 06:56 KSFO 140656Z 14005KT 5SM HZ FEW200 12/03 A3036 RMK AO2 SLP280 T01170028
KE16 - San Martin, California, USA
Distance from station: ИЮИ 43km
Актуализирано: 14/11/2018 08:50
Облачно
Облачно
 Вятър от ССЗ
Вятър: ССЗ 7 km/h
Температура: 7°C
Wind Chill: 6°C
Точка на оросяване: -2°C
Влажност: 53%
Барометър: 1029.1 hPa
Clouds: Облачно
Visibility: 13 km
Cloud details: Частична облачност 427 m
Преобладаваща облачност 610 m
Облачно 1524 m
2018/11/14 06:50 KE16 140650Z AUTO 34004KT 8SM SCT014 BKN020 OVC050 07/M02 A3039 RMK AO2
 
KWVI - Watsonville, California, USA
Distance from station: ЮЮИ 44km
Актуализирано: 14/11/2018 08:53
Тихо и ясно
Тихо и ясно
 Вятър от calm
Вятър: Тихо
Температура: 8°C
Точка на оросяване: -2°C
Влажност: 50%
Барометър: 1028.1 hPa
Clouds: Тихо и ясно
Visibility: 16 km
2018/11/14 06:53 KWVI 140653Z AUTO 00000KT 10SM CLR 08/M02 A3036 RMK AO2 SLP280 T00831017
KHAF - Half Moon Bay, California, USA
Distance from station: ЗСЗ 50km
Актуализирано: 14/11/2018 09:00
Облачно
Облачно
 Вятър от ИСИ
Вятър: ИСИ 11 km/h
Температура: 9°C
Wind Chill: 7°C
Точка на оросяване: -2°C
Влажност: 46%
Барометър: 1027.8 hPa
Clouds: Облачно
Visibility: 13 km
Cloud details: Облачно 1981 m
2018/11/14 07:00 KHAF 140700Z AUTO 07006KT 8SM OVC065 09/M02 A3035 RMK AO2
 
KHWD - Hayward, California, USA
Distance from station: С 44km
Актуализирано: 14/11/2018 08:54
Haze, Smoke, Тихо и ясно
Haze, Smoke, Тихо и ясно
 Вятър от И
Вятър: И 6 km/h
Температура: 12°C
Точка на оросяване: -1°C
Влажност: 41%
Барометър: 1028.4 hPa
Метео сводка: Haze, Smoke
Clouds: Тихо и ясно
Visibility: 10 km
2018/11/14 06:54 KHWD 140654Z AUTO 08003KT 6SM HZ FU CLR 12/M01 A3037 RMK AO2 SLP293 T01171006
KLVK - Livermore, California, USA
Distance from station: ССИ 51km
Актуализирано: 14/11/2018 08:53
Haze, Smoke, Тихо и ясно
Haze, Smoke, Тихо и ясно
 Вятър от И
Вятър: И 6 km/h
Температура: 7°C
Точка на оросяване: -2°C
Влажност: 53%
Барометър: 1028.8 hPa
Метео сводка: Haze, Smoke
Clouds: Тихо и ясно
Visibility: 6 km
2018/11/14 06:53 KLVK 140653Z AUTO 08003KT 4SM HZ FU CLR 07/M02 A3038 RMK AO2 SLP286 T00671022
Web Analytics